RKTN/TAE METAR and TAF weather

Enter ICAO airport designator
Station Type Date Time Source
RKTN METAR 2021/03/03 21:00 UTC NOAA

RKTN 032100Z 07002KT CAVOK 01/M01 Q1028


Station Type Date Time Source
RKTN Decoded METAR 2021/03/03 21:00 UTC NOAA

Taegu Ab, Korea, South (RKTN) 35-54N 128-39E 37M
Mar 03, 2021 - 04:00 PM EST / 2021.03.03 2100 UTC
Wind: from the ENE (070 degrees) at 2 MPH (2 KT):0
Visibility: greater than 7 mile(s):0
Temperature: 33 F (1 C)
Dew Point: 30 F (-1 C)
Relative Humidity: 86%
Pressure (altimeter): 30.36 in. Hg (1028 hPa)
ob: RKTN 032100Z 07002KT CAVOK 01/M01 Q1028
cycle: 21

Station Type Date Time Source
RKTN TAF 2021/03/03 18:06 UTC NOAA

TAF RKTN 031700Z 0318/0424 10006KT CAVOK TN01/0321Z TX13/0406Z
BECMG 0407/0408 18006KT 9999 BKN030 OVC100
BECMG 0409/0410 4800 -RA BR
BECMG 0412/0413 21006KT 3200 SCT015 BKN025
BECMG 0423/0424 4800 BR

Example: see airport list